Terminal Aerodrome Forecast
Issued by NWS

Home | Current Version | Previous Version | Text Only | Print | Product List | Glossary On
Versions: 1 2 3 4 5 6 7 8 9 10 11 12 13 14 15 16 17
000
FTUS45 KABQ 291335 AAA
TAFTCC
TAF AMD
KTCC 291335Z 2914/3012 01017G27KT P6SM -RA OVC035
      TEMPO 2914/2916 3SM RA BR OVC015
     FM291600 01022G32KT P6SM VCSH BKN035
     FM292000 02020G30KT P6SM BKN045
     FM300100 27008KT P6SM FEW070=

USA.gov is the U.S. government's official web portal to all federal, state and local government web resources and services.